Time;durP1;ratioP1;P1;durP2;ratioP2;P2;SDS_P1;SDS_P2;PMS_P1;PMS_P2;Temp;Humidity;BMP_temperature;BMP_pressure;BME280_temperature;BME280_humidity;BME280_pressure;Samples;Min_cycle;Max_cycle;Signal;HPM_P1;HPM_P2
2023/12/23 00:02:13;;;;;;;0.60;0.60;;;1.60;99.90;;;;;;4944264;28;20467;-56
2023/12/23 00:04:40;;;;;;;1.00;0.77;;;1.60;99.90;;;;;;4949053;28;20514;-57
2023/12/23 00:07:05;;;;;;;0.77;0.77;;;1.60;99.90;;;;;;4946907;29;21175;-56
2023/12/23 00:09:32;;;;;;;1.37;1.27;;;1.60;99.90;;;;;;4951312;28;20494;-58
2023/12/23 00:11:58;;;;;;;0.60;0.60;;;1.60;99.90;;;;;;4947739;29;20282;-57
2023/12/23 00:14:25;;;;;;;1.80;0.80;;;1.60;99.90;;;;;;4944115;29;20451;-56
2023/12/23 00:16:51;;;;;;;0.80;0.50;;;1.60;99.90;;;;;;4944751;29;20466;-57
2023/12/23 00:19:19;;;;;;;0.83;0.70;;;1.60;99.90;;;;;;4940464;29;20610;-57
2023/12/23 00:21:46;;;;;;;0.60;0.60;;;1.60;99.90;;;;;;4947460;29;20922;-57
2023/12/23 00:24:12;;;;;;;0.60;0.50;;;1.60;99.90;;;;;;4945166;29;20965;-57
2023/12/23 00:26:39;;;;;;;0.70;0.70;;;1.60;99.90;;;;;;4944133;29;21007;-57
2023/12/23 00:29:05;;;;;;;0.80;0.70;;;1.60;99.90;;;;;;4944621;29;20972;-57
2023/12/23 00:31:32;;;;;;;1.83;0.60;;;1.60;99.90;;;;;;4950032;29;21035;-57
2023/12/23 00:33:58;;;;;;;0.80;0.80;;;1.50;99.90;;;;;;4945751;29;20490;-57
2023/12/23 00:36:26;;;;;;;1.20;0.83;;;1.50;99.90;;;;;;4940498;29;22544;-57
2023/12/23 00:38:53;;;;;;;0.83;0.83;;;1.50;99.90;;;;;;4942851;29;20498;-56
2023/12/23 00:41:19;;;;;;;0.70;0.70;;;1.60;99.90;;;;;;4944859;29;20521;-57
2023/12/23 00:43:46;;;;;;;1.63;0.67;;;1.70;99.90;;;;;;4945105;29;20466;-57
2023/12/23 00:46:13;;;;;;;1.27;0.83;;;1.70;99.90;;;;;;4947022;29;20509;-57
2023/12/23 00:48:39;;;;;;;0.70;0.60;;;1.60;99.90;;;;;;4941612;29;20486;-58
2023/12/23 00:51:06;;;;;;;0.93;0.93;;;1.60;99.90;;;;;;4945447;29;20466;-56
2023/12/23 00:53:34;;;;;;;0.80;0.77;;;1.50;99.90;;;;;;4945918;29;20957;-57
2023/12/23 00:56:00;;;;;;;1.40;0.80;;;1.50;99.90;;;;;;4945492;28;20961;-57
2023/12/23 00:58:27;;;;;;;0.97;0.63;;;1.50;99.90;;;;;;4948913;28;20541;-57
2023/12/23 01:00:54;;;;;;;0.93;0.73;;;1.40;99.90;;;;;;4941986;29;20934;-57
2023/12/23 01:03:20;;;;;;;0.97;0.70;;;1.40;99.90;;;;;;4945476;29;20490;-57
2023/12/23 01:05:47;;;;;;;0.80;0.70;;;1.30;99.90;;;;;;4945717;29;20599;-56
2023/12/23 01:08:13;;;;;;;0.80;0.70;;;1.30;99.90;;;;;;4944296;28;20482;-57
2023/12/23 01:10:41;;;;;;;0.90;0.80;;;1.20;99.90;;;;;;4945118;29;20652;-56
2023/12/23 01:13:08;;;;;;;3.73;1.10;;;1.10;99.80;;;;;;4942790;28;20491;-57
2023/12/23 01:15:34;;;;;;;0.60;0.60;;;1.20;93.30;;;;;;4948834;29;20485;-56
2023/12/23 01:18:01;;;;;;;1.50;0.70;;;1.20;90.30;;;;;;4940980;28;20543;-57
2023/12/23 01:20:27;;;;;;;1.03;0.93;;;1.30;86.90;;;;;;4950180;29;20466;-57
2023/12/23 01:22:54;;;;;;;2.97;1.37;;;1.30;89.80;;;;;;4948091;29;20870;-56
2023/12/23 01:25:22;;;;;;;3.00;0.90;;;1.30;87.40;;;;;;4943640;29;20443;-56
2023/12/23 01:27:50;;;;;;;1.77;1.10;;;1.30;95.50;;;;;;4947741;29;20537;-56
2023/12/23 01:30:16;;;;;;;0.97;0.70;;;1.30;99.90;;;;;;4945712;28;20948;-56
2023/12/23 01:32:43;;;;;;;1.87;1.13;;;1.40;99.90;;;;;;4951651;29;20843;-57
2023/12/23 01:35:10;;;;;;;1.77;1.00;;;1.50;99.90;;;;;;4951489;29;20868;-57
2023/12/23 01:37:37;;;;;;;1.30;1.00;;;1.50;99.90;;;;;;4945317;29;20478;-56
2023/12/23 01:40:04;;;;;;;1.53;0.73;;;1.50;99.90;;;;;;4952065;29;20481;-57
2023/12/23 01:42:31;;;;;;;1.20;0.80;;;1.50;99.90;;;;;;4944784;29;20449;-57
2023/12/23 01:44:59;;;;;;;1.70;1.30;;;1.60;99.90;;;;;;4952139;29;20479;-57
2023/12/23 01:47:25;;;;;;;1.03;0.80;;;1.60;99.90;;;;;;4944220;29;20597;-56
2023/12/23 01:49:52;;;;;;;2.23;1.20;;;1.60;99.90;;;;;;4950182;28;20490;-57
2023/12/23 01:52:19;;;;;;;2.93;1.57;;;1.70;99.90;;;;;;4947252;29;20446;-57
2023/12/23 01:54:46;;;;;;;1.80;1.20;;;1.70;99.90;;;;;;4944201;29;20950;-56
2023/12/23 01:57:12;;;;;;;0.67;0.67;;;1.70;99.90;;;;;;4952765;29;20442;-57
2023/12/23 01:59:39;;;;;;;1.37;0.87;;;1.70;99.90;;;;;;4950769;29;20531;-56
2023/12/23 02:02:08;;;;;;;1.40;0.87;;;1.70;99.90;;;;;;4951707;29;20486;-56
2023/12/23 02:04:35;;;;;;;2.70;1.30;;;1.70;99.90;;;;;;4948188;29;20447;-57
2023/12/23 02:07:01;;;;;;;2.60;1.20;;;1.70;99.90;;;;;;4943831;28;20509;-57
2023/12/23 02:09:28;;;;;;;4.20;1.17;;;1.70;99.90;;;;;;4950808;28;20500;-57
2023/12/23 02:12:00;;;;;;;2.00;1.00;;;1.60;99.90;;;;;;4944180;29;20953;-57
2023/12/23 02:14:36;;;;;;;3.47;1.03;;;1.50;99.90;;;;;;4944398;29;20549;-57
2023/12/23 02:17:03;;;;;;;5.27;0.90;;;1.60;99.90;;;;;;4948778;29;20546;-56
2023/12/23 02:19:30;;;;;;;2.63;1.00;;;1.50;99.90;;;;;;4946182;28;20479;-56
2023/12/23 02:21:58;;;;;;;2.30;1.07;;;1.50;99.90;;;;;;4936951;29;20475;-56
2023/12/23 02:24:26;;;;;;;4.73;1.50;;;1.50;99.90;;;;;;4948718;29;20536;-56
2023/12/23 02:26:59;;;;;;;1.53;1.00;;;1.40;99.90;;;;;;4947248;29;20577;-56
2023/12/23 02:29:27;;;;;;;1.60;1.07;;;1.40;99.90;;;;;;4940934;29;20483;-57
2023/12/23 02:31:56;;;;;;;1.43;0.80;;;1.30;99.90;;;;;;4947937;29;20467;-57
2023/12/23 02:34:23;;;;;;;3.87;1.23;;;1.30;99.90;;;;;;4946255;29;20438;-56
2023/12/23 02:36:49;;;;;;;1.10;1.00;;;1.30;99.90;;;;;;4951503;29;20537;-56
2023/12/23 02:39:17;;;;;;;2.47;1.40;;;1.20;99.90;;;;;;4946012;29;20466;-57
2023/12/23 02:41:44;;;;;;;4.80;1.20;;;1.20;99.90;;;;;;4951434;29;20443;-56
2023/12/23 02:44:10;;;;;;;3.20;1.63;;;1.20;99.90;;;;;;4949455;28;20517;-57
2023/12/23 02:46:38;;;;;;;1.90;0.90;;;1.20;99.90;;;;;;4944336;29;20514;-57
2023/12/23 02:49:04;;;;;;;2.60;1.03;;;1.20;99.90;;;;;;4948740;29;20561;-57
2023/12/23 02:51:31;;;;;;;2.60;1.07;;;1.30;99.90;;;;;;4952727;29;20447;-57
2023/12/23 02:53:57;;;;;;;5.90;1.10;;;1.30;99.90;;;;;;4949435;29;20455;-56
2023/12/23 02:56:25;;;;;;;2.47;1.00;;;1.30;99.90;;;;;;4949827;29;20454;-57
2023/12/23 02:58:52;;;;;;;2.17;1.53;;;1.30;99.90;;;;;;4941051;29;20556;-56
2023/12/23 03:01:20;;;;;;;4.60;1.20;;;1.30;99.90;;;;;;4947944;29;20528;-56
2023/12/23 03:03:47;;;;;;;1.43;0.80;;;1.30;99.90;;;;;;4951090;29;20482;-57
2023/12/23 03:06:14;;;;;;;3.03;1.10;;;1.20;99.90;;;;;;4950874;29;20485;-56
2023/12/23 03:08:41;;;;;;;1.30;1.20;;;1.10;99.90;;;;;;4952447;28;20961;-57
2023/12/23 03:11:08;;;;;;;1.63;0.90;;;1.10;99.90;;;;;;4951313;29;20458;-57
2023/12/23 03:13:36;;;;;;;5.07;1.00;;;1.10;99.90;;;;;;4947950;29;20447;-56
2023/12/23 03:16:03;;;;;;;2.50;1.17;;;1.00;99.90;;;;;;4946989;29;20443;-56
2023/12/23 03:18:29;;;;;;;4.63;1.57;;;1.00;99.90;;;;;;4943614;28;20544;-57
2023/12/23 03:20:56;;;;;;;1.80;0.93;;;1.00;99.90;;;;;;4946567;29;20442;-56
2023/12/23 03:23:22;;;;;;;3.80;0.77;;;1.00;99.90;;;;;;4950807;29;20451;-57
2023/12/23 03:25:49;;;;;;;0.73;0.73;;;1.00;99.90;;;;;;4950869;29;20443;-56
2023/12/23 03:28:16;;;;;;;5.50;1.03;;;0.90;99.90;;;;;;4948019;29;20522;-57
2023/12/23 03:30:44;;;;;;;2.07;1.00;;;0.90;99.90;;;;;;4949139;29;20470;-56
2023/12/23 03:33:15;;;;;;;3.50;1.20;;;0.90;99.90;;;;;;4949795;29;20490;-56
2023/12/23 03:35:42;;;;;;;1.67;0.90;;;0.90;99.90;;;;;;4943485;29;20463;-57
2023/12/23 03:38:08;;;;;;;1.20;0.80;;;0.90;99.90;;;;;;4951876;28;20466;-56
2023/12/23 03:40:35;;;;;;;1.43;0.97;;;1.00;99.90;;;;;;4953562;28;20474;-56
2023/12/23 03:43:01;;;;;;;2.67;1.03;;;1.10;99.90;;;;;;4952960;29;20530;-57
2023/12/23 03:45:27;;;;;;;3.97;1.20;;;1.10;99.90;;;;;;4949274;29;20475;-56
2023/12/23 03:47:55;;;;;;;1.60;0.80;;;1.10;99.90;;;;;;4948512;28;20275;-56
2023/12/23 03:50:22;;;;;;;1.10;1.00;;;1.00;99.90;;;;;;4950917;29;20443;-56
2023/12/23 03:52:49;;;;;;;2.67;0.90;;;1.00;99.90;;;;;;4950571;29;20493;-57
2023/12/23 03:55:15;;;;;;;4.60;1.13;;;1.00;99.90;;;;;;4956098;29;20443;-56
2023/12/23 03:57:43;;;;;;;2.23;0.90;;;1.00;99.90;;;;;;4942893;29;20531;-56
2023/12/23 04:00:11;;;;;;;3.10;1.10;;;1.10;99.90;;;;;;4955840;29;20992;-56
2023/12/23 04:02:38;;;;;;;1.70;1.20;;;1.10;99.90;;;;;;4948898;29;20534;-56
2023/12/23 04:05:07;;;;;;;3.93;1.30;;;1.10;99.90;;;;;;4948510;29;20855;-57
2023/12/23 04:07:33;;;;;;;1.93;1.07;;;1.10;99.90;;;;;;4956741;29;20486;-57
2023/12/23 04:10:00;;;;;;;4.13;0.87;;;1.10;99.90;;;;;;4945916;28;20493;-56
2023/12/23 04:12:27;;;;;;;2.60;1.20;;;1.20;99.90;;;;;;4944898;29;20475;-57
2023/12/23 04:14:54;;;;;;;1.87;0.90;;;1.20;99.90;;;;;;4951398;29;20964;-56
2023/12/23 04:17:20;;;;;;;2.40;1.10;;;1.20;99.90;;;;;;4955471;29;20450;-56
2023/12/23 04:19:47;;;;;;;4.23;1.50;;;1.30;99.90;;;;;;4956030;29;20482;-57
2023/12/23 04:22:15;;;;;;;3.63;1.30;;;1.30;99.90;;;;;;4955366;29;20446;-57
2023/12/23 04:24:42;;;;;;;3.70;1.20;;;1.40;99.90;;;;;;4947498;29;21000;-57
2023/12/23 04:27:09;;;;;;;1.90;1.50;;;1.40;99.90;;;;;;4952334;29;20511;-57
2023/12/23 04:29:35;;;;;;;2.80;1.30;;;1.40;99.90;;;;;;4950615;28;20545;-57
2023/12/23 04:32:04;;;;;;;3.60;1.47;;;1.50;99.90;;;;;;4952079;29;20525;-56
2023/12/23 04:34:30;;;;;;;4.60;1.50;;;1.50;99.90;;;;;;4951096;29;20455;-56
2023/12/23 04:36:57;;;;;;;4.97;2.00;;;1.50;85.20;;;;;;4950504;29;20509;-56
2023/12/23 04:39:25;;;;;;;6.93;1.83;;;1.50;80.90;;;;;;4950910;29;20988;-56
2023/12/23 04:41:53;;;;;;;4.63;1.63;;;1.50;89.20;;;;;;4965065;23;20502;-62
2023/12/23 04:44:20;;;;;;;4.40;1.70;;;1.50;24.20;;;;;;4950562;29;20462;-60
2023/12/23 04:46:48;;;;;;;5.70;2.20;;;1.60;26.60;;;;;;4954923;28;20485;-62
2023/12/23 04:49:15;;;;;;;3.80;1.87;;;1.60;32.60;;;;;;4949135;29;20466;-61
2023/12/23 04:51:43;;;;;;;4.83;1.40;;;1.60;40.20;;;;;;4938020;28;20483;-62
2023/12/23 04:54:10;;;;;;;5.90;1.80;;;1.60;42.00;;;;;;4935895;29;20468;-62
2023/12/23 04:56:38;;;;;;;10.30;2.40;;;1.70;47.90;;;;;;4937660;29;20461;-61
2023/12/23 04:59:04;;;;;;;11.37;2.20;;;1.80;52.50;;;;;;4930714;29;20519;-61
2023/12/23 05:01:31;;;;;;;11.23;3.80;;;1.90;57.80;;;;;;4929259;29;20905;-61
2023/12/23 05:03:58;;;;;;;6.70;2.20;;;1.90;55.80;;;;;;4928432;29;20467;-60
2023/12/23 05:06:24;;;;;;;3.00;1.73;;;1.90;58.00;;;;;;4939983;29;20443;-61
2023/12/23 05:08:51;;;;;;;6.70;2.00;;;1.90;49.90;;;;;;4932051;29;20486;-61
2023/12/23 05:11:18;;;;;;;12.90;3.10;;;1.90;52.40;;;;;;4934999;29;20853;-61
2023/12/23 05:13:45;;;;;;;7.90;2.63;;;1.90;51.00;;;;;;4931420;29;20452;-61
2023/12/23 05:16:12;;;;;;;4.17;1.90;;;1.90;47.50;;;;;;4931176;29;20514;-61
2023/12/23 05:18:39;;;;;;;15.33;2.80;;;2.00;46.40;;;;;;4934075;29;20439;-61
2023/12/23 05:21:05;;;;;;;7.00;2.63;;;1.90;45.40;;;;;;4935931;29;20502;-60
2023/12/23 05:23:32;;;;;;;12.43;3.17;;;1.90;42.60;;;;;;4925331;29;20506;-60
2023/12/23 05:25:59;;;;;;;7.20;2.50;;;1.90;40.10;;;;;;4935024;29;20470;-60
2023/12/23 05:28:25;;;;;;;13.90;2.80;;;1.90;34.00;;;;;;4934708;29;20521;-61
2023/12/23 05:30:53;;;;;;;9.20;2.80;;;1.90;30.50;;;;;;4936887;29;20482;-61
2023/12/23 05:33:24;;;;;;;7.43;1.90;;;1.90;23.60;;;;;;4931038;29;20467;-61
2023/12/23 05:35:50;;;;;;;15.73;3.40;;;2.00;26.70;;;;;;4933315;29;20461;-60
2023/12/23 05:38:17;;;;;;;10.73;2.30;;;2.00;24.30;;;;;;4930719;29;21099;-59
2023/12/23 05:40:43;;;;;;;9.67;2.67;;;2.00;21.40;;;;;;4935639;29;20541;-61
2023/12/23 05:43:10;;;;;;;6.53;2.17;;;2.00;21.80;;;;;;4935281;29;20518;-60
2023/12/23 05:45:37;;;;;;;8.87;2.23;;;2.00;21.60;;;;;;4935245;29;20464;-61
2023/12/23 05:48:05;;;;;;;9.30;2.27;;;2.10;88.60;;;;;;4936877;29;20514;-61
2023/12/23 05:50:32;;;;;;;7.23;1.70;;;2.10;93.30;;;;;;4928777;29;20546;-61
2023/12/23 05:52:58;;;;;;;8.47;2.47;;;2.20;96.20;;;;;;4928416;29;20558;-61
2023/12/23 05:55:24;;;;;;;16.57;2.47;;;2.10;92.70;;;;;;4932582;29;20468;-61
2023/12/23 05:57:51;;;;;;;10.50;2.20;;;2.20;82.10;;;;;;4937438;29;20507;-61
2023/12/23 06:00:20;;;;;;;11.73;2.20;;;2.20;99.50;;;;;;4931358;29;20263;-60
2023/12/23 06:02:46;;;;;;;9.60;2.53;;;2.20;99.90;;;;;;4934253;29;20920;-60
2023/12/23 06:05:14;;;;;;;14.20;2.60;;;2.20;99.90;;;;;;4933003;29;20945;-60
2023/12/23 06:07:41;;;;;;;9.93;2.57;;;2.20;99.90;;;;;;4939302;29;20517;-60
2023/12/23 06:10:08;;;;;;;9.90;2.57;;;2.20;99.90;;;;;;4928482;29;20491;-60
2023/12/23 06:12:35;;;;;;;8.87;2.43;;;2.20;99.90;;;;;;4931758;29;20986;-61
2023/12/23 06:15:02;;;;;;;9.83;2.30;;;2.30;99.90;;;;;;4935356;29;20577;-61
2023/12/23 06:17:28;;;;;;;6.33;1.67;;;2.30;99.90;;;;;;4927183;29;20617;-60
2023/12/23 06:19:55;;;;;;;10.20;2.80;;;2.30;99.90;;;;;;4929651;29;20467;-61
2023/12/23 06:22:23;;;;;;;10.17;2.20;;;2.30;99.90;;;;;;4930908;29;20534;-61
2023/12/23 06:24:49;;;;;;;9.83;2.60;;;2.30;99.90;;;;;;4935395;29;20888;-61
2023/12/23 06:27:16;;;;;;;4.97;1.90;;;2.30;99.90;;;;;;4934266;29;20828;-61
2023/12/23 06:29:42;;;;;;;7.10;2.83;;;2.30;99.90;;;;;;4935008;29;20466;-60
2023/12/23 06:32:09;;;;;;;11.40;5.20;;;2.30;99.90;;;;;;4925068;29;21175;-61
2023/12/23 06:34:35;;;;;;;9.20;2.37;;;2.30;99.90;;;;;;4933776;29;20468;-62
2023/12/23 06:37:02;;;;;;;12.90;2.50;;;2.30;99.90;;;;;;4931083;29;20463;-62
2023/12/23 06:39:31;;;;;;;10.83;2.53;;;2.30;99.90;;;;;;4930933;29;21167;-61
2023/12/23 06:41:58;;;;;;;8.83;4.30;;;2.30;99.90;;;;;;4936200;29;20899;-61
2023/12/23 06:44:24;;;;;;;3.37;2.20;;;2.30;99.90;;;;;;4934980;29;20523;-59
2023/12/23 06:46:52;;;;;;;8.60;2.53;;;2.30;99.90;;;;;;4939044;29;20470;-61
2023/12/23 06:49:18;;;;;;;6.80;2.17;;;2.40;99.90;;;;;;4931784;29;20996;-62
2023/12/23 06:51:45;;;;;;;7.83;1.83;;;2.30;99.90;;;;;;4937326;29;20486;-61
2023/12/23 06:54:12;;;;;;;6.53;2.20;;;2.30;99.90;;;;;;4930749;29;20494;-62
2023/12/23 06:56:39;;;;;;;8.80;2.33;;;2.30;99.90;;;;;;4935423;29;20468;-61
2023/12/23 06:59:09;;;;;;;5.10;2.80;;;2.40;99.90;;;;;;4937476;29;20455;-60
2023/12/23 07:01:38;;;;;;;4.90;1.93;;;2.40;99.90;;;;;;4936922;29;20993;-62
2023/12/23 07:04:04;;;;;;;5.50;1.93;;;2.50;99.90;;;;;;4937220;29;20467;-61
2023/12/23 07:06:31;;;;;;;8.00;1.87;;;2.40;99.90;;;;;;4935582;29;20464;-61
2023/12/23 07:08:58;;;;;;;8.17;2.03;;;2.50;99.90;;;;;;4931263;29;20542;-61
2023/12/23 07:11:25;;;;;;;7.10;2.17;;;2.40;99.90;;;;;;4931613;29;20554;-61
2023/12/23 07:13:53;;;;;;;5.10;1.70;;;2.50;99.90;;;;;;4935563;29;20467;-61
2023/12/23 07:16:20;;;;;;;5.53;1.73;;;2.50;99.90;;;;;;4937762;29;20463;-63
2023/12/23 07:18:47;;;;;;;11.63;2.37;;;2.50;99.90;;;;;;4936932;28;20546;-61
2023/12/23 07:21:13;;;;;;;4.83;1.83;;;2.50;99.90;;;;;;4935651;29;20538;-60
2023/12/23 07:23:40;;;;;;;8.83;2.07;;;2.50;99.90;;;;;;4935729;29;20463;-62
2023/12/23 07:26:11;;;;;;;5.27;1.43;;;2.50;99.90;;;;;;4937914;29;20466;-62
2023/12/23 07:28:38;;;;;;;6.23;2.00;;;2.50;99.90;;;;;;4938562;29;20922;-55
2023/12/23 07:31:06;;;;;;;5.43;2.23;;;2.50;99.90;;;;;;4938441;29;20541;-54
2023/12/23 07:33:32;;;;;;;8.13;2.17;;;2.50;99.90;;;;;;4941581;29;20463;-54
2023/12/23 07:35:59;;;;;;;5.03;2.10;;;2.50;99.90;;;;;;4931840;29;20820;-52
2023/12/23 07:38:26;;;;;;;4.20;1.50;;;2.40;99.90;;;;;;4937935;29;20563;-52
2023/12/23 07:40:52;;;;;;;7.30;2.63;;;2.40;99.90;;;;;;4938940;28;20556;-53
2023/12/23 07:43:19;;;;;;;4.77;2.57;;;2.50;99.90;;;;;;4937558;29;20462;-54
2023/12/23 07:45:46;;;;;;;6.77;2.30;;;2.40;99.90;;;;;;4932644;29;20952;-54
2023/12/23 07:48:14;;;;;;;5.60;2.60;;;2.40;99.90;;;;;;4936945;28;20490;-55
2023/12/23 07:50:40;;;;;;;3.53;1.97;;;2.40;99.90;;;;;;4932560;29;20481;-52
2023/12/23 07:53:07;;;;;;;5.23;2.57;;;2.40;99.90;;;;;;4930576;29;21037;-52
2023/12/23 07:55:34;;;;;;;4.33;2.40;;;2.40;99.90;;;;;;4937748;29;21056;-54
2023/12/23 07:58:00;;;;;;;3.03;1.57;;;2.40;99.90;;;;;;4938777;29;20470;-52
2023/12/23 08:00:27;;;;;;;2.70;1.97;;;2.40;99.90;;;;;;4937639;29;20479;-55
2023/12/23 08:02:54;;;;;;;5.43;1.73;;;2.40;99.90;;;;;;4939331;29;20466;-52
2023/12/23 08:05:22;;;;;;;4.43;1.60;;;2.50;99.90;;;;;;4935197;29;20949;-53
2023/12/23 08:07:48;;;;;;;7.23;1.70;;;2.50;99.90;;;;;;4939307;29;20462;-53
2023/12/23 08:10:16;;;;;;;2.70;1.90;;;2.50;99.90;;;;;;4935589;29;20459;-54
2023/12/23 08:12:44;;;;;;;3.00;1.20;;;2.50;99.90;;;;;;4937500;29;20456;-54
2023/12/23 08:15:11;;;;;;;4.37;1.80;;;2.60;99.90;;;;;;4932082;29;20215;-52
2023/12/23 08:17:37;;;;;;;3.13;1.40;;;2.60;99.90;;;;;;4931002;29;20487;-53
2023/12/23 08:20:05;;;;;;;1.97;1.17;;;2.60;99.90;;;;;;4934790;29;20513;-51
2023/12/23 08:22:33;;;;;;;3.63;2.10;;;2.60;99.90;;;;;;4936773;29;20893;-52
2023/12/23 08:25:00;;;;;;;3.60;1.40;;;2.60;99.90;;;;;;4940639;29;20598;-52
2023/12/23 08:27:26;;;;;;;3.17;1.90;;;2.60;99.90;;;;;;4936255;29;20518;-52
2023/12/23 08:29:53;;;;;;;2.67;1.40;;;2.70;99.90;;;;;;4939090;29;20557;-52
2023/12/23 08:32:20;;;;;;;6.93;1.83;;;2.70;99.90;;;;;;4939109;29;20634;-52
2023/12/23 08:34:47;;;;;;;7.60;2.50;;;2.70;99.90;;;;;;4940055;28;20473;-53
2023/12/23 08:37:13;;;;;;;5.33;1.30;;;2.60;99.90;;;;;;4928881;29;20546;-52
2023/12/23 08:39:41;;;;;;;8.80;2.00;;;2.70;99.90;;;;;;4935740;29;20855;-51
2023/12/23 08:42:08;;;;;;;4.10;2.30;;;2.70;99.90;;;;;;4939483;29;20499;-53
2023/12/23 08:44:34;;;;;;;4.00;1.50;;;2.70;99.90;;;;;;4941371;29;20472;-53
2023/12/23 08:47:01;;;;;;;5.40;1.63;;;2.70;99.90;;;;;;4937193;29;20467;-52
2023/12/23 08:49:27;;;;;;;6.73;2.33;;;2.70;99.90;;;;;;4934057;29;21040;-53
2023/12/23 08:51:54;;;;;;;5.70;2.00;;;2.70;99.90;;;;;;4935512;29;20858;-54
2023/12/23 08:54:21;;;;;;;4.87;1.93;;;2.60;99.90;;;;;;4922114;29;20478;-54
2023/12/23 08:56:48;;;;;;;3.40;1.70;;;2.70;99.90;;;;;;4927730;29;20524;-52
2023/12/23 08:59:16;;;;;;;11.00;2.57;;;2.70;99.90;;;;;;4932475;29;20910;-53
2023/12/23 09:01:43;;;;;;;5.60;2.13;;;2.70;99.90;;;;;;4925572;29;20506;-53
2023/12/23 09:04:10;;;;;;;5.80;1.80;;;2.60;99.90;;;;;;4931827;28;20475;-53
2023/12/23 09:06:37;;;;;;;2.77;1.43;;;2.60;99.90;;;;;;4933718;29;20910;-52
2023/12/23 09:09:03;;;;;;;5.60;2.30;;;2.60;99.90;;;;;;4930544;29;20499;-53
2023/12/23 09:11:30;;;;;;;6.23;2.93;;;2.50;99.90;;;;;;4925476;29;20492;-51
2023/12/23 09:13:58;;;;;;;7.83;1.73;;;2.50;99.90;;;;;;4933520;29;20486;-51
2023/12/23 09:16:24;;;;;;;3.80;1.80;;;2.50;99.90;;;;;;4933475;29;20877;-51
2023/12/23 09:18:51;;;;;;;7.50;1.73;;;2.40;99.90;;;;;;4928663;29;20530;-51
2023/12/23 09:21:18;;;;;;;3.27;1.40;;;2.20;99.90;;;;;;4931942;29;20574;-51
2023/12/23 09:23:45;;;;;;;5.70;1.47;;;2.00;1.40;;;;;;4937427;29;20848;-53
2023/12/23 09:26:13;;;;;;;4.97;1.70;;;1.80;99.90;;;;;;4929079;29;20890;-52
2023/12/23 09:28:40;;;;;;;4.13;1.80;;;1.80;99.90;;;;;;4929434;29;20490;-53
2023/12/23 09:31:08;;;;;;;9.10;1.43;;;1.80;99.90;;;;;;4931406;29;20980;-53
2023/12/23 09:33:34;;;;;;;2.93;1.63;;;1.70;99.90;;;;;;4931461;29;20518;-52
2023/12/23 09:36:01;;;;;;;3.07;1.90;;;1.60;99.90;;;;;;4936474;29;20520;-52
2023/12/23 09:38:28;;;;;;;5.60;1.80;;;1.60;99.90;;;;;;4936494;29;20551;-52
2023/12/23 09:40:54;;;;;;;10.87;2.17;;;1.60;99.90;;;;;;4928651;29;20928;-53
2023/12/23 09:43:22;;;;;;;3.47;1.80;;;1.50;99.90;;;;;;4936278;29;20443;-52
2023/12/23 09:45:50;;;;;;;5.90;1.97;;;1.50;99.90;;;;;;4938118;29;20471;-52
2023/12/23 09:48:19;;;;;;;5.23;1.87;;;1.50;99.90;;;;;;4935764;29;20824;-53
2023/12/23 09:50:45;;;;;;;4.87;2.00;;;1.40;98.00;;;;;;4940038;28;20486;-54
2023/12/23 09:53:14;;;;;;;5.77;1.50;;;1.40;92.10;;;;;;4935166;29;21041;-53
2023/12/23 09:55:41;;;;;;;3.27;1.93;;;1.50;89.10;;;;;;4938818;29;20482;-52
2023/12/23 09:58:08;;;;;;;5.60;2.43;;;1.50;85.40;;;;;;4938084;29;20905;-53
2023/12/23 10:00:34;;;;;;;2.53;2.23;;;1.50;83.20;;;;;;4930122;29;20486;-51
2023/12/23 10:03:01;;;;;;;3.90;2.80;;;1.60;80.10;;;;;;4934130;29;20941;-53
2023/12/23 10:05:30;;;;;;;4.47;2.10;;;1.60;75.50;;;;;;4928466;29;20486;-51
2023/12/23 10:07:58;;;;;;;5.37;2.50;;;1.60;75.50;;;;;;4928417;29;20946;-51
2023/12/23 10:10:24;;;;;;;2.80;2.60;;;1.60;76.00;;;;;;4929458;29;20540;-53
2023/12/23 10:12:51;;;;;;;4.40;2.37;;;1.60;75.80;;;;;;4937546;29;20485;-53
2023/12/23 10:15:18;;;;;;;3.53;1.50;;;1.60;72.80;;;;;;4932032;29;20471;-52
2023/12/23 10:17:45;;;;;;;2.97;1.77;;;1.60;75.00;;;;;;4936211;29;21027;-53
2023/12/23 10:20:12;;;;;;;1.87;1.67;;;1.70;73.00;;;;;;4931844;29;20455;-53
2023/12/23 10:22:43;;;;;;;4.80;3.00;;;1.70;73.00;;;;;;4938989;29;20460;-53
2023/12/23 10:25:09;;;;;;;4.07;2.60;;;1.70;73.40;;;;;;4933152;29;20470;-53
2023/12/23 10:27:40;;;;;;;4.60;2.17;;;1.60;74.50;;;;;;4938275;29;20464;-53
2023/12/23 10:30:10;;;;;;;1.47;1.30;;;1.60;75.30;;;;;;4934386;29;20518;-51
2023/12/23 10:32:37;;;;;;;1.97;1.77;;;1.60;75.80;;;;;;4933871;29;20466;-51
2023/12/23 10:35:07;;;;;;;4.60;1.63;;;1.70;73.20;;;;;;4934512;29;20470;-53
2023/12/23 10:37:35;;;;;;;3.27;1.63;;;1.60;75.00;;;;;;4928549;29;20467;-51
2023/12/23 10:40:12;;;;;;;4.20;1.57;;;1.50;78.60;;;;;;4931807;29;21000;-52
2023/12/23 10:42:39;;;;;;;2.47;1.13;;;1.40;78.70;;;;;;4952406;23;20526;-57
2023/12/23 10:45:08;;;;;;;3.57;1.30;;;1.30;79.10;;;;;;4950104;29;20466;-61
2023/12/23 10:47:36;;;;;;;2.43;1.33;;;1.20;76.60;;;;;;4945992;29;20465;-55
2023/12/23 10:50:04;;;;;;;3.03;1.03;;;1.30;75.30;;;;;;4945230;28;21078;-56
2023/12/23 10:52:31;;;;;;;2.50;1.50;;;1.10;71.60;;;;;;4932501;28;20482;-57
2023/12/23 10:54:58;;;;;;;3.00;2.47;;;1.10;68.30;;;;;;4932142;29;20471;-55
2023/12/23 10:57:28;;;;;;;3.33;2.80;;;1.10;66.10;;;;;;4926648;29;20463;-54
2023/12/23 10:59:55;;;;;;;3.47;3.10;;;1.10;65.40;;;;;;4933237;29;20522;-61
2023/12/23 11:02:27;;;;;;;1.70;1.60;;;1.10;64.70;;;;;;4927624;29;20546;-54
2023/12/23 11:04:55;;;;;;;9.37;2.60;;;1.10;65.10;;;;;;4929258;29;20588;-54
2023/12/23 11:07:26;;;;;;;2.33;2.13;;;1.20;63.50;;;;;;4929662;29;20498;-56
2023/12/23 11:09:55;;;;;;;2.57;2.07;;;1.20;63.10;;;;;;4928125;29;20906;-53
2023/12/23 11:12:22;;;;;;;5.80;2.73;;;1.20;62.90;;;;;;4930062;29;20519;-60
2023/12/23 11:14:50;;;;;;;2.37;2.07;;;1.20;62.20;;;;;;4927575;29;20510;-56
2023/12/23 11:17:24;;;;;;;1.57;1.47;;;1.20;62.50;;;;;;4928394;29;20776;-56
2023/12/23 11:19:51;;;;;;;3.80;2.13;;;1.20;62.90;;;;;;4923519;29;20495;-60
2023/12/23 11:22:21;;;;;;;2.50;1.73;;;1.20;61.60;;;;;;4926509;29;20886;-57
2023/12/23 11:24:47;;;;;;;2.20;1.93;;;1.20;63.50;;;;;;4927664;29;20991;-60
2023/12/23 11:27:29;;;;;;;2.33;2.23;;;1.20;61.10;;;;;;4926359;29;20592;-56
2023/12/23 11:29:59;;;;;;;2.83;2.63;;;1.30;61.00;;;;;;4930756;29;20490;-60
2023/12/23 11:32:25;;;;;;;3.57;1.90;;;1.30;61.10;;;;;;4929765;29;20546;-57
2023/12/23 11:34:52;;;;;;;1.67;1.60;;;1.30;62.10;;;;;;4928826;29;20530;-55
2023/12/23 11:37:21;;;;;;;1.80;1.50;;;1.30;61.40;;;;;;4925866;29;20463;-56
2023/12/23 11:39:47;;;;;;;1.60;1.50;;;1.30;60.60;;;;;;4928475;29;20492;-56
2023/12/23 11:42:16;;;;;;;2.23;1.97;;;1.30;60.40;;;;;;4928851;29;20487;-56
2023/12/23 11:44:43;;;;;;;2.20;1.80;;;1.40;60.90;;;;;;4929640;29;20463;-55
2023/12/23 11:47:12;;;;;;;4.00;1.50;;;1.40;59.80;;;;;;4926894;29;20503;-55
2023/12/23 11:49:40;;;;;;;1.60;1.50;;;1.40;59.80;;;;;;4928355;29;20570;-61
2023/12/23 11:52:08;;;;;;;2.60;1.97;;;1.50;59.80;;;;;;4926024;29;20497;-56
2023/12/23 11:54:35;;;;;;;1.53;1.43;;;1.50;60.50;;;;;;4919295;29;20893;-55
2023/12/23 11:57:02;;;;;;;4.97;1.73;;;1.40;61.20;;;;;;4926777;29;20467;-60
2023/12/23 11:59:29;;;;;;;2.83;1.33;;;1.50;63.40;;;;;;4925490;29;21016;-60
2023/12/23 12:01:56;;;;;;;2.00;1.27;;;1.40;72.20;;;;;;4933370;29;20467;-55
2023/12/23 12:04:25;;;;;;;2.40;1.50;;;1.50;71.30;;;;;;4933325;29;20462;-55
2023/12/23 12:06:52;;;;;;;2.93;2.07;;;1.40;78.90;;;;;;4931625;29;20467;-55
2023/12/23 12:09:19;;;;;;;2.00;1.03;;;1.50;75.70;;;;;;4928318;29;20526;-56
2023/12/23 12:11:45;;;;;;;3.43;1.23;;;1.50;81.50;;;;;;4927811;29;20546;-56
2023/12/23 12:14:12;;;;;;;1.40;1.30;;;1.40;84.70;;;;;;4925766;29;20992;-55
2023/12/23 12:16:40;;;;;;;2.13;1.83;;;1.50;80.60;;;;;;4927198;29;20464;-57
2023/12/23 12:19:06;;;;;;;4.80;2.03;;;1.50;79.70;;;;;;4929820;29;20918;-61
2023/12/23 12:21:34;;;;;;;2.90;1.70;;;1.50;77.70;;;;;;4925372;29;20538;-62
2023/12/23 12:24:01;;;;;;;4.27;1.90;;;1.50;79.10;;;;;;4931539;29;20562;-57
2023/12/23 12:26:28;;;;;;;1.90;1.60;;;1.50;79.90;;;;;;4929955;29;20464;-55
2023/12/23 12:28:55;;;;;;;11.40;1.67;;;1.50;81.00;;;;;;4929403;29;20467;-54
2023/12/23 12:31:22;;;;;;;4.87;1.87;;;1.50;82.20;;;;;;4928835;29;21020;-61
2023/12/23 12:33:50;;;;;;;5.33;1.83;;;1.50;84.00;;;;;;4927603;29;20849;-56
2023/12/23 12:36:17;;;;;;;3.63;1.93;;;1.50;83.70;;;;;;4928547;29;20949;-53
2023/12/23 12:38:45;;;;;;;2.73;2.20;;;1.60;92.30;;;;;;4930450;29;20494;-56
2023/12/23 12:41:13;;;;;;;2.93;1.57;;;1.60;88.30;;;;;;4928612;29;20860;-56
2023/12/23 12:43:40;;;;;;;1.70;1.37;;;1.60;92.30;;;;;;4930411;29;20475;-56
2023/12/23 12:46:07;;;;;;;1.57;1.47;;;1.60;90.40;;;;;;4929946;29;20499;-55
2023/12/23 12:48:34;;;;;;;1.10;0.93;;;1.60;90.20;;;;;;4931540;29;20563;-55
2023/12/23 12:51:00;;;;;;;1.50;1.00;;;1.60;92.00;;;;;;4935626;28;20490;-56
2023/12/23 12:53:29;;;;;;;4.00;1.53;;;1.60;92.40;;;;;;4931761;29;20522;-55
2023/12/23 12:56:07;;;;;;;1.60;1.27;;;1.60;90.10;;;;;;4926647;29;20463;-60